createdAt,value
2022-12-01T00:01:47.390Z,45.40
2022-12-01T00:06:49.016Z,44.50
2022-12-01T00:11:50.537Z,45.78
2022-12-01T00:16:52.151Z,47.13
2022-12-01T00:21:53.835Z,47.42
2022-12-01T00:26:55.330Z,48.83
2022-12-01T00:31:56.866Z,48.25
2022-12-01T00:36:58.484Z,49.60
2022-12-01T00:42:00.038Z,46.63
2022-12-01T00:47:01.508Z,48.70
2022-12-01T00:52:03.022Z,49.47
2022-12-01T00:57:05.251Z,46.65
2022-12-01T01:02:07.879Z,48.53
2022-12-01T01:07:09.500Z,50.13
2022-12-01T01:12:11.030Z,47.78
2022-12-01T01:17:12.712Z,49.67
2022-12-01T01:22:14.204Z,50.03
2022-12-01T01:27:15.725Z,48.28
2022-12-01T01:32:17.288Z,50.00
2022-12-01T01:37:18.809Z,48.83
2022-12-01T01:42:20.842Z,49.35
2022-12-01T01:47:30.701Z,49.78
2022-12-01T01:52:40.593Z,48.85
2022-12-01T01:57:44.053Z,50.87
2022-12-01T02:02:47.200Z,46.97
2022-12-01T02:07:50.812Z,49.33
2022-12-01T02:13:14.948Z,48.40
2022-12-01T02:18:23.129Z,49.80
2022-12-01T02:24:02.210Z,49.83
2022-12-01T02:29:22.267Z,48.97
2022-12-01T02:34:42.662Z,50.47
2022-12-01T02:39:55.813Z,48.78
2022-12-01T02:44:59.146Z,48.95
2022-12-01T02:50:02.997Z,46.83
2022-12-01T02:55:04.672Z,49.67
2022-12-01T03:00:06.998Z,49.00
2022-12-01T03:05:21.344Z,49.42
2022-12-01T03:10:24.201Z,48.55
2022-12-01T03:15:50.173Z,50.00
2022-12-01T03:20:58.960Z,47.55
2022-12-01T03:26:03.495Z,47.13
2022-12-01T03:31:10.289Z,45.47
2022-12-01T03:36:40.986Z,43.15
2022-12-01T03:41:50.348Z,43.15
2022-12-01T03:46:56.385Z,44.08
2022-12-01T03:52:05.830Z,46.53
2022-12-01T03:57:11.500Z,43.88
2022-12-01T04:02:13.577Z,41.92
2022-12-01T04:07:15.317Z,43.78
2022-12-01T04:12:33.086Z,43.45
2022-12-01T04:17:34.794Z,43.92
2022-12-01T04:22:36.743Z,44.78
2022-12-01T04:27:38.634Z,41.28
2022-12-01T04:32:42.656Z,41.53
2022-12-01T04:37:44.183Z,41.20
2022-12-01T04:42:45.723Z,38.17
2022-12-01T04:47:47.223Z,41.70
2022-12-01T04:52:48.725Z,40.23
2022-12-01T04:57:50.143Z,38.22
2022-12-01T05:02:51.569Z,42.08
2022-12-01T05:07:53.131Z,41.60
2022-12-01T05:12:55.162Z,40.38
2022-12-01T05:17:56.666Z,42.08
2022-12-01T05:23:05.205Z,39.97
2022-12-01T05:28:07.517Z,38.50
2022-12-01T05:33:09.035Z,39.75
2022-12-01T05:38:10.673Z,37.47
2022-12-01T05:43:12.177Z,37.85
2022-12-01T05:48:13.836Z,37.78
2022-12-01T05:53:15.477Z,37.40
2022-12-01T05:58:16.917Z,36.60
2022-12-01T06:03:18.506Z,36.53
2022-12-01T06:08:20.099Z,35.55
2022-12-01T06:13:21.816Z,35.60
2022-12-01T06:18:24.154Z,34.83
2022-12-01T06:23:30.193Z,35.53
2022-12-01T06:28:32.227Z,36.07
2022-12-01T06:33:33.765Z,34.13
2022-12-01T06:38:36.935Z,35.03
2022-12-01T06:43:38.403Z,35.80
2022-12-01T06:48:39.929Z,33.17
2022-12-01T06:53:41.447Z,34.13
2022-12-01T06:58:42.939Z,33.90
2022-12-01T07:03:49.200Z,33.67
2022-12-01T07:08:50.657Z,33.63
2022-12-01T07:13:56.669Z,35.07
2022-12-01T07:18:59.927Z,33.92
2022-12-01T07:24:01.474Z,33.87
2022-12-01T07:29:03.245Z,37.35
2022-12-01T07:34:05.895Z,34.80
2022-12-01T07:39:08.544Z,35.83
2022-12-01T07:44:11.169Z,35.30
2022-12-01T07:49:15.044Z,36.00
2022-12-01T07:54:17.660Z,36.33
2022-12-01T07:59:19.096Z,34.30
2022-12-01T08:04:20.553Z,37.67
2022-12-01T08:09:22.095Z,38.93
2022-12-01T08:14:23.619Z,38.30
2022-12-01T08:19:25.869Z,38.67
2022-12-01T08:24:27.588Z,38.67
2022-12-01T08:29:29.134Z,37.90
2022-12-01T08:34:30.853Z,38.55
2022-12-01T08:39:32.367Z,37.97
2022-12-01T08:44:33.921Z,38.07
2022-12-01T08:49:35.474Z,38.78
2022-12-01T08:54:36.933Z,42.07
2022-12-01T08:59:38.742Z,44.20
2022-12-01T09:04:40.246Z,42.63
2022-12-01T09:09:42.513Z,42.70
2022-12-01T09:14:49.576Z,45.80
2022-12-01T09:19:52.415Z,44.30
2022-12-01T09:24:53.993Z,42.92
2022-12-01T09:29:55.448Z,45.05
2022-12-01T09:34:56.873Z,45.30
2022-12-01T09:39:58.301Z,42.05
2022-12-01T09:45:02.640Z,44.50
2022-12-01T09:50:13.212Z,45.28
2022-12-01T09:55:18.204Z,43.15
2022-12-01T10:00:23.220Z,43.15
2022-12-01T10:05:30.570Z,43.67
2022-12-01T10:10:40.495Z,43.60
2022-12-01T10:15:58.565Z,43.33
2022-12-01T10:21:22.104Z,45.15
2022-12-01T10:26:51.864Z,44.20
2022-12-01T10:31:54.767Z,46.25
2022-12-01T10:36:57.911Z,48.08
2022-12-01T10:42:25.797Z,43.67
2022-12-01T10:47:31.885Z,45.97
2022-12-01T10:52:40.048Z,45.05
2022-12-01T10:57:45.263Z,44.80
2022-12-01T11:02:47.298Z,45.60
2022-12-01T11:07:49.926Z,43.53
2022-12-01T11:13:22.452Z,47.83
2022-12-01T11:18:28.465Z,48.22
2022-12-01T11:23:30.208Z,51.58
2022-12-01T11:28:33.589Z,52.72
2022-12-01T11:33:54.914Z,49.67
2022-12-01T11:38:59.119Z,48.15
2022-12-01T11:44:06.255Z,44.17
2022-12-01T11:49:20.169Z,42.53
2022-12-01T11:54:26.460Z,42.17
2022-12-01T11:59:29.224Z,44.63
2022-12-01T12:05:28.135Z,43.95
2022-12-01T12:10:32.609Z,41.92
2022-12-01T12:15:58.687Z,41.78
2022-12-01T12:21:18.678Z,40.00
2022-12-01T12:26:39.521Z,38.10
2022-12-01T12:31:53.877Z,40.08
2022-12-01T12:37:03.245Z,41.03
2022-12-01T12:42:17.488Z,38.90
2022-12-01T12:47:26.553Z,38.45
2022-12-01T12:52:40.544Z,41.78
2022-12-01T12:57:53.894Z,38.08
2022-12-01T13:03:04.753Z,37.00
2022-12-01T13:08:12.929Z,39.33
2022-12-01T13:13:25.897Z,40.72
2022-12-01T13:18:40.691Z,39.42
2022-12-01T13:23:43.895Z,38.90
2022-12-01T13:28:51.715Z,37.15
2022-12-01T13:33:58.965Z,37.95
2022-12-01T13:39:05.910Z,35.75
2022-12-01T13:44:20.794Z,34.63
2022-12-01T13:49:42.016Z,34.95
2022-12-01T13:55:08.201Z,35.65
2022-12-01T14:00:22.004Z,33.28
2022-12-01T14:05:42.975Z,31.37
2022-12-01T14:10:52.833Z,29.95
2022-12-01T14:16:03.663Z,31.35
2022-12-01T14:21:09.383Z,34.15
2022-12-01T14:26:18.929Z,32.05
2022-12-01T14:31:20.898Z,32.67
2022-12-01T14:36:43.966Z,33.33
2022-12-01T14:41:59.750Z,29.10
2022-12-01T14:47:13.592Z,31.63
2022-12-01T14:52:35.766Z,30.45
2022-12-01T14:57:40.987Z,30.35
2022-12-01T15:02:46.815Z,31.17
2022-12-01T15:08:06.754Z,31.35
2022-12-01T15:13:30.789Z,29.08
2022-12-01T15:18:36.818Z,30.10
2022-12-01T15:24:02.411Z,30.83
2022-12-01T15:29:25.485Z,30.13
2022-12-01T15:34:41.387Z,30.98
2022-12-01T15:39:46.092Z,31.45
2022-12-01T15:45:16.845Z,31.30
2022-12-01T15:50:42.912Z,31.13
2022-12-01T15:55:54.147Z,31.53
2022-12-01T16:01:11.143Z,28.83
2022-12-01T16:06:13.066Z,32.70
2022-12-01T16:11:17.350Z,33.17
2022-12-01T16:16:46.282Z,31.27
2022-12-01T16:21:54.382Z,31.60
2022-12-01T16:27:15.477Z,39.55
2022-12-01T16:32:43.971Z,34.63
2022-12-01T16:37:45.510Z,32.28
2022-12-01T16:42:49.795Z,38.93
2022-12-01T16:47:51.261Z,33.53
2022-12-01T16:52:52.708Z,36.00
2022-12-01T16:57:55.341Z,34.20
2022-12-01T17:02:57.681Z,33.67
2022-12-01T17:08:00.001Z,32.50
2022-12-01T17:13:01.503Z,34.70
2022-12-01T17:18:03.069Z,32.73
2022-12-01T17:23:05.079Z,32.78
2022-12-01T17:28:06.535Z,31.63
2022-12-01T17:33:07.962Z,32.85
2022-12-01T17:38:09.511Z,32.85
2022-12-01T17:43:11.000Z,31.80
2022-12-01T17:48:12.485Z,33.35
2022-12-01T17:53:13.917Z,32.37
2022-12-01T17:58:18.062Z,32.93
2022-12-01T18:03:20.675Z,30.88
2022-12-01T18:08:22.239Z,35.07
2022-12-01T18:13:23.714Z,34.43
2022-12-01T18:18:25.366Z,36.40
2022-12-01T18:23:27.115Z,33.50
2022-12-01T18:28:28.579Z,34.00
2022-12-01T18:33:32.389Z,31.52
2022-12-01T18:38:33.883Z,34.60
2022-12-01T18:43:36.521Z,34.10
2022-12-01T18:48:38.181Z,33.47
2022-12-01T18:53:40.173Z,34.83
2022-12-01T18:58:41.747Z,33.70
2022-12-01T19:03:43.237Z,34.37
2022-12-01T19:08:44.936Z,30.70
2022-12-01T19:13:47.091Z,30.90
2022-12-01T19:18:48.936Z,30.20
2022-12-01T19:23:50.448Z,30.90
2022-12-01T19:28:52.214Z,31.73
2022-12-01T19:33:54.664Z,31.63
2022-12-01T19:38:57.862Z,31.77
2022-12-01T19:43:59.420Z,31.87
2022-12-01T19:49:01.946Z,31.50
2022-12-01T19:54:05.716Z,30.10
2022-12-01T19:59:07.969Z,31.97
2022-12-01T20:04:09.447Z,30.70
2022-12-01T20:09:11.022Z,31.27
2022-12-01T20:14:12.713Z,37.55
2022-12-01T20:19:14.317Z,32.55
2022-12-01T20:24:19.821Z,30.87
2022-12-01T20:29:26.403Z,31.45
2022-12-01T20:34:31.725Z,30.50
2022-12-01T20:39:35.281Z,30.63
2022-12-01T20:44:37.528Z,31.67
2022-12-01T20:49:39.299Z,31.17
2022-12-01T20:54:42.400Z,30.93
2022-12-01T20:59:43.852Z,31.07
2022-12-01T21:04:45.336Z,30.93
2022-12-01T21:09:46.794Z,29.73
2022-12-01T21:15:00.320Z,26.50
2022-12-01T21:20:08.573Z,32.10
2022-12-01T21:25:16.595Z,28.90
2022-12-01T21:30:26.303Z,28.47
2022-12-01T21:35:28.030Z,30.10
2022-12-01T21:40:30.469Z,30.27
2022-12-01T21:45:32.133Z,30.83
2022-12-01T21:50:33.786Z,32.90
2022-12-01T21:55:42.256Z,29.83
2022-12-01T22:00:45.539Z,30.97
2022-12-01T22:06:14.032Z,30.57
2022-12-01T22:11:18.615Z,33.17
2022-12-01T22:16:32.547Z,34.23
2022-12-01T22:21:44.876Z,33.85
2022-12-01T22:26:48.757Z,35.17
2022-12-01T22:31:50.641Z,35.25
2022-12-01T22:36:52.338Z,36.57
2022-12-01T22:41:59.560Z,36.97
2022-12-01T22:47:02.746Z,34.30
2022-12-01T22:52:18.979Z,35.67
2022-12-01T22:57:34.803Z,36.20
2022-12-01T23:02:36.292Z,35.83
2022-12-01T23:07:41.596Z,33.70
2022-12-01T23:12:44.852Z,36.13
2022-12-01T23:17:47.277Z,36.40
2022-12-01T23:22:48.896Z,33.90
2022-12-01T23:27:52.556Z,33.93
2022-12-01T23:33:05.939Z,33.37
2022-12-01T23:38:16.805Z,34.40
2022-12-01T23:43:24.813Z,33.50
2022-12-01T23:48:34.994Z,31.37
2022-12-01T23:53:39.370Z,31.47
2022-12-01T23:58:41.116Z,32.60
